sensor_id;sensor_type;location;lat;lon;timestamp;P1;durP1;ratioP1;P2;durP2;ratioP2
21448;SDS011;10885;52.830;13.788;2023-06-26T15:45:44;7.57;;;6.18;;
21448;SDS011;10885;52.830;13.788;2023-06-26T15:51:05;9.60;;;7.57;;
21448;SDS011;10885;52.830;13.788;2023-06-26T15:56:26;13.15;;;9.10;;
21448;SDS011;10885;52.830;13.788;2023-06-26T16:01:48;15.20;;;8.20;;
21448;SDS011;10885;52.830;13.788;2023-06-26T16:07:11;12.15;;;7.57;;
21448;SDS011;10885;52.830;13.788;2023-06-26T16:12:32;14.50;;;7.72;;
21448;SDS011;10885;52.830;13.788;2023-06-26T16:17:53;10.55;;;7.70;;
21448;SDS011;10885;52.830;13.788;2023-06-26T16:23:15;12.63;;;7.63;;
21448;SDS011;10885;52.830;13.788;2023-06-26T16:28:38;12.55;;;8.32;;
21448;SDS011;10885;52.830;13.788;2023-06-26T16:34:00;11.05;;;8.13;;
21448;SDS011;10885;52.830;13.788;2023-06-26T16:39:21;9.35;;;7.95;;
21448;SDS011;10885;52.830;13.788;2023-06-26T16:44:45;9.18;;;8.10;;
21448;SDS011;10885;52.830;13.788;2023-06-26T16:50:07;9.48;;;8.32;;
21448;SDS011;10885;52.830;13.788;2023-06-26T16:55:28;13.02;;;8.40;;
21448;SDS011;10885;52.830;13.788;2023-06-26T17:00:49;12.65;;;8.80;;
21448;SDS011;10885;52.830;13.788;2023-06-26T17:06:11;11.57;;;8.45;;
21448;SDS011;10885;52.830;13.788;2023-06-26T17:11:32;14.50;;;9.07;;
21448;SDS011;10885;52.830;13.788;2023-06-26T17:16:53;14.48;;;8.80;;
21448;SDS011;10885;52.830;13.788;2023-06-26T17:22:15;14.93;;;9.38;;
21448;SDS011;10885;52.830;13.788;2023-06-26T17:27:36;12.25;;;9.20;;
21448;SDS011;10885;52.830;13.788;2023-06-26T17:32:58;12.50;;;8.80;;
21448;SDS011;10885;52.830;13.788;2023-06-26T17:38:20;12.85;;;9.02;;
21448;SDS011;10885;52.830;13.788;2023-06-26T17:43:41;12.23;;;8.75;;
21448;SDS011;10885;52.830;13.788;2023-06-26T17:49:02;13.25;;;9.32;;
21448;SDS011;10885;52.830;13.788;2023-06-26T17:54:23;15.38;;;9.63;;
21448;SDS011;10885;52.830;13.788;2023-06-26T17:59:45;13.80;;;8.57;;
21448;SDS011;10885;52.830;13.788;2023-06-26T18:05:07;13.38;;;9.23;;
21448;SDS011;10885;52.830;13.788;2023-06-26T18:10:29;12.20;;;9.82;;
21448;SDS011;10885;52.830;13.788;2023-06-26T18:15:50;16.65;;;9.77;;
21448;SDS011;10885;52.830;13.788;2023-06-26T18:21:12;12.35;;;9.40;;
21448;SDS011;10885;52.830;13.788;2023-06-26T18:26:33;14.15;;;9.65;;
21448;SDS011;10885;52.830;13.788;2023-06-26T18:31:54;13.45;;;9.60;;
21448;SDS011;10885;52.830;13.788;2023-06-26T18:37:15;12.30;;;9.55;;
21448;SDS011;10885;52.830;13.788;2023-06-26T18:42:36;15.25;;;10.27;;
21448;SDS011;10885;52.830;13.788;2023-06-26T18:47:57;16.67;;;10.55;;
21448;SDS011;10885;52.830;13.788;2023-06-26T18:53:18;16.98;;;10.52;;
21448;SDS011;10885;52.830;13.788;2023-06-26T18:58:39;15.48;;;10.18;;
21448;SDS011;10885;52.830;13.788;2023-06-26T19:04:01;13.13;;;9.75;;
21448;SDS011;10885;52.830;13.788;2023-06-26T19:09:23;14.15;;;10.40;;
21448;SDS011;10885;52.830;13.788;2023-06-26T19:14:46;12.93;;;10.65;;
21448;SDS011;10885;52.830;13.788;2023-06-26T19:20:07;14.77;;;11.55;;
21448;SDS011;10885;52.830;13.788;2023-06-26T19:25:28;17.60;;;11.45;;
21448;SDS011;10885;52.830;13.788;2023-06-26T19:30:50;16.95;;;11.77;;
21448;SDS011;10885;52.830;13.788;2023-06-26T19:36:12;15.77;;;11.73;;
21448;SDS011;10885;52.830;13.788;2023-06-26T19:41:35;17.30;;;12.77;;
21448;SDS011;10885;52.830;13.788;2023-06-26T19:46:57;17.52;;;13.48;;
21448;SDS011;10885;52.830;13.788;2023-06-26T19:52:18;13.73;;;11.82;;
21448;SDS011;10885;52.830;13.788;2023-06-26T19:57:40;17.73;;;12.15;;
21448;SDS011;10885;52.830;13.788;2023-06-26T20:03:02;17.88;;;11.32;;
21448;SDS011;10885;52.830;13.788;2023-06-26T20:08:24;11.88;;;9.00;;
21448;SDS011;10885;52.830;13.788;2023-06-26T20:13:46;10.80;;;7.85;;
21448;SDS011;10885;52.830;13.788;2023-06-26T20:19:07;12.00;;;6.72;;
21448;SDS011;10885;52.830;13.788;2023-06-26T20:24:28;13.55;;;5.85;;
21448;SDS011;10885;52.830;13.788;2023-06-26T20:29:54;14.05;;;6.15;;
21448;SDS011;10885;52.830;13.788;2023-06-26T20:35:15;9.60;;;6.68;;
21448;SDS011;10885;52.830;13.788;2023-06-26T20:40:36;11.57;;;6.55;;
21448;SDS011;10885;52.830;13.788;2023-06-26T20:45:58;11.40;;;6.50;;
21448;SDS011;10885;52.830;13.788;2023-06-26T20:51:19;12.90;;;6.05;;
21448;SDS011;10885;52.830;13.788;2023-06-26T20:56:45;7.72;;;5.50;;
21448;SDS011;10885;52.830;13.788;2023-06-26T21:02:07;11.05;;;5.80;;
21448;SDS011;10885;52.830;13.788;2023-06-26T21:07:28;8.13;;;5.25;;
21448;SDS011;10885;52.830;13.788;2023-06-26T21:12:49;11.23;;;6.00;;
21448;SDS011;10885;52.830;13.788;2023-06-26T21:18:11;11.75;;;5.65;;
21448;SDS011;10885;52.830;13.788;2023-06-26T21:23:32;11.88;;;5.18;;
21448;SDS011;10885;52.830;13.788;2023-06-26T21:28:53;15.02;;;4.75;;
21448;SDS011;10885;52.830;13.788;2023-06-26T21:34:14;8.80;;;4.28;;
21448;SDS011;10885;52.830;13.788;2023-06-26T21:39:36;10.73;;;5.07;;
21448;SDS011;10885;52.830;13.788;2023-06-26T21:44:57;7.63;;;3.63;;
21448;SDS011;10885;52.830;13.788;2023-06-26T21:50:18;9.68;;;3.78;;
21448;SDS011;10885;52.830;13.788;2023-06-26T21:55:39;8.50;;;2.97;;
21448;SDS011;10885;52.830;13.788;2023-06-26T22:01:00;11.02;;;3.40;;
21448;SDS011;10885;52.830;13.788;2023-06-26T22:06:22;7.13;;;3.28;;
21448;SDS011;10885;52.830;13.788;2023-06-26T22:11:43;9.48;;;3.80;;
21448;SDS011;10885;52.830;13.788;2023-06-26T22:17:04;8.55;;;3.58;;
21448;SDS011;10885;52.830;13.788;2023-06-26T22:22:25;7.85;;;3.35;;
21448;SDS011;10885;52.830;13.788;2023-06-26T22:27:48;5.30;;;3.35;;
21448;SDS011;10885;52.830;13.788;2023-06-26T22:33:10;7.50;;;3.45;;
21448;SDS011;10885;52.830;13.788;2023-06-26T22:38:31;5.80;;;3.10;;
21448;SDS011;10885;52.830;13.788;2023-06-26T22:43:52;9.85;;;3.15;;
21448;SDS011;10885;52.830;13.788;2023-06-26T22:49:13;4.32;;;2.60;;
21448;SDS011;10885;52.830;13.788;2023-06-26T22:54:34;4.85;;;2.92;;
21448;SDS011;10885;52.830;13.788;2023-06-26T22:59:56;6.95;;;2.97;;
21448;SDS011;10885;52.830;13.788;2023-06-26T23:05:17;10.38;;;3.35;;
21448;SDS011;10885;52.830;13.788;2023-06-26T23:10:38;8.90;;;2.90;;
21448;SDS011;10885;52.830;13.788;2023-06-26T23:16:00;13.30;;;3.30;;
21448;SDS011;10885;52.830;13.788;2023-06-26T23:21:42;7.32;;;3.10;;
21448;SDS011;10885;52.830;13.788;2023-06-26T23:27:03;12.43;;;3.65;;
21448;SDS011;10885;52.830;13.788;2023-06-26T23:32:28;7.00;;;3.00;;
21448;SDS011;10885;52.830;13.788;2023-06-26T23:37:51;5.18;;;2.80;;
21448;SDS011;10885;52.830;13.788;2023-06-26T23:43:15;9.40;;;3.58;;
21448;SDS011;10885;52.830;13.788;2023-06-26T23:48:37;10.80;;;2.72;;
21448;SDS011;10885;52.830;13.788;2023-06-26T23:54:00;7.35;;;2.55;;
21448;SDS011;10885;52.830;13.788;2023-06-26T23:59:21;5.93;;;3.05;;
